Time;durP1;ratioP1;P1;durP2;ratioP2;P2;SDS_P1;SDS_P2;PMS_P1;PMS_P2;Temp;Humidity;BMP_temperature;BMP_pressure;BME280_temperature;BME280_humidity;BME280_pressure;Samples;Min_cycle;Max_cycle;Signal;HPM_P1;HPM_P2
2021/03/02 00:00:24;;;;;;;11.55;7.65;;;;;;;2.30;67.72;102275.81;1786303;80;20898;-68
2021/03/02 00:02:52;;;;;;;12.78;8.68;;;;;;;2.32;67.69;102281.00;1786351;80;21793;-69
2021/03/02 00:05:20;;;;;;;14.50;9.20;;;;;;;2.30;67.70;102280.13;1786234;80;20914;-68
2021/03/02 00:07:49;;;;;;;19.52;11.35;;;;;;;2.28;67.62;102281.41;1786416;80;20940;-68
2021/03/02 00:10:18;;;;;;;15.60;9.40;;;;;;;2.24;67.63;102274.06;1786803;80;21576;-70
2021/03/02 00:12:45;;;;;;;21.70;12.55;;;;;;;2.21;67.68;102272.78;1786970;80;21429;-69
2021/03/02 00:15:15;;;;;;;16.27;10.72;;;;;;;2.19;67.68;102270.62;1786844;80;21804;-69
2021/03/02 00:17:49;;;;;;;13.95;9.43;;;;;;;2.16;67.60;102265.89;1786817;80;20967;-67
2021/03/02 00:20:21;;;;;;;16.55;9.30;;;;;;;2.10;67.63;102261.55;1786922;80;21003;-68
2021/03/02 00:22:55;;;;;;;18.25;10.68;;;;;;;2.05;67.93;102264.57;1761573;80;20935;-68
2021/03/02 00:25:27;;;;;;;19.67;10.10;;;;;;;2.01;68.00;102264.98;1786865;80;20936;-68
2021/03/02 00:27:55;;;;;;;17.73;9.95;;;;;;;1.99;68.13;102260.67;1786624;80;21209;-69
2021/03/02 00:30:23;;;;;;;17.35;8.63;;;;;;;1.97;68.12;102252.89;1776006;80;20934;-68
2021/03/02 00:32:52;;;;;;;18.52;10.90;;;;;;;1.95;68.21;102251.17;1743726;82;20946;-68
2021/03/02 00:35:21;;;;;;;17.95;9.65;;;;;;;1.93;68.16;102247.72;1745272;82;20930;-69
2021/03/02 00:37:49;;;;;;;14.00;8.53;;;;;;;1.87;68.27;102240.82;1786836;80;20936;-69
2021/03/02 00:40:17;;;;;;;17.77;9.48;;;;;;;1.83;68.40;102241.23;1786792;80;21153;-68
2021/03/02 00:42:46;;;;;;;16.70;9.30;;;;;;;1.80;68.53;102233.48;1786393;80;21587;-68
2021/03/02 00:45:15;;;;;;;14.95;8.80;;;;;;;1.79;68.62;102235.61;1786960;80;20971;-68
2021/03/02 00:47:43;;;;;;;18.20;10.15;;;;;;;1.76;68.77;102232.17;1786866;80;20935;-68
2021/03/02 00:50:12;;;;;;;14.23;7.90;;;;;;;1.75;68.81;102229.14;1787031;80;20880;-68
2021/03/02 00:52:41;;;;;;;12.55;7.70;;;;;;;1.74;68.80;102224.41;1786878;80;21431;-68
2021/03/02 00:55:11;;;;;;;13.10;7.72;;;;;;;1.75;68.75;102231.28;1786834;80;21429;-68
2021/03/02 00:57:39;;;;;;;15.88;8.03;;;;;;;1.76;68.63;102227.00;1786896;80;20937;-67
2021/03/02 01:00:11;;;;;;;14.83;9.33;;;;;;;1.74;68.61;102222.25;1776136;80;20942;-68
2021/03/02 01:02:39;;;;;;;13.95;9.68;;;;;;;1.73;68.62;102212.75;1743831;82;20951;-68
2021/03/02 01:05:09;;;;;;;15.03;9.15;;;;;;;1.68;68.76;102221.80;1718975;82;21225;-69
2021/03/02 01:07:38;;;;;;;14.53;9.30;;;;;;;1.66;68.77;102220.92;1738994;82;20996;-68
2021/03/02 01:10:09;;;;;;;14.45;8.70;;;;;;;1.62;68.81;102217.48;1722638;83;21009;-70
2021/03/02 01:12:41;;;;;;;15.98;9.98;;;;;;;1.61;68.87;102205.84;1735228;82;21030;-68
2021/03/02 01:15:10;;;;;;;18.02;9.98;;;;;;;1.56;69.03;102209.70;1788827;80;21057;-67
2021/03/02 01:17:39;;;;;;;16.57;10.18;;;;;;;1.56;69.14;102206.26;1761887;81;21437;-67
2021/03/02 01:20:10;;;;;;;19.15;11.70;;;;;;;1.52;69.16;102203.23;1761866;81;21455;-69
2021/03/02 01:22:39;;;;;;;16.48;10.08;;;;;;;1.54;69.19;102204.09;1761967;80;21482;-68
2021/03/02 01:25:11;;;;;;;14.35;8.90;;;;;;;1.50;69.29;102201.92;1761844;81;20953;-68
2021/03/02 01:27:39;;;;;;;13.50;8.93;;;;;;;1.50;69.30;102195.89;1761924;81;20894;-69
2021/03/02 01:30:13;;;;;;;16.57;9.68;;;;;;;1.47;69.43;102204.50;1761863;81;21204;-69
2021/03/02 01:32:41;;;;;;;11.33;8.10;;;;;;;1.45;69.46;102194.59;1761987;80;20950;-68
2021/03/02 01:35:11;;;;;;;14.87;9.98;;;;;;;1.42;69.52;102195.45;1761911;81;21614;-68
2021/03/02 01:37:39;;;;;;;13.62;8.95;;;;;;;1.41;69.59;102196.29;1761973;80;20926;-69
2021/03/02 01:40:14;;;;;;;15.15;8.50;;;;;;;1.40;69.61;102191.99;1762006;81;21009;-70
2021/03/02 01:42:43;;;;;;;15.98;9.08;;;;;;;1.39;69.58;102194.12;1762067;81;21197;-67
2021/03/02 01:45:14;;;;;;;18.02;11.70;;;;;;;1.37;69.64;102191.11;1761922;81;20938;-67
2021/03/02 01:47:43;;;;;;;15.83;10.75;;;;;;;1.35;69.70;102182.48;1762045;81;21641;-70
2021/03/02 01:50:12;;;;;;;21.07;12.53;;;;;;;1.30;69.75;102181.17;1761966;81;20938;-71
2021/03/02 01:52:40;;;;;;;29.65;15.23;;;;;;;1.24;69.83;102176.87;1746765;81;20930;-69
2021/03/02 01:55:09;;;;;;;21.00;13.35;;;;;;;1.19;69.99;102176.40;1761938;81;21542;-69
2021/03/02 01:57:36;;;;;;;22.62;13.22;;;;;;;1.15;70.07;102173.36;1761804;80;21016;-68
2021/03/02 02:00:28;;;;;;;32.70;16.82;;;;;;;1.10;70.31;102175.07;1761793;81;21068;-69
2021/03/02 02:03:43;;;;;;;20.70;12.35;;;;;;;1.05;70.43;102167.30;1761891;81;21534;-69
2021/03/02 02:06:26;;;;;;;21.10;12.63;;;;;;;0.99;70.52;102172.00;1761957;81;21384;-69
2021/03/02 02:09:38;;;;;;;18.75;12.63;;;;;;;0.93;70.58;102171.96;1777044;80;21364;-69
2021/03/02 02:12:11;;;;;;;17.80;11.48;;;;;;;0.90;70.70;102165.94;1786815;80;20987;-69
2021/03/02 02:15:06;;;;;;;17.15;11.80;;;;;;;0.86;71.01;102163.75;1786785;80;20932;-70
2021/03/02 02:17:51;;;;;;;20.77;11.80;;;;;;;0.83;71.21;102159.88;1786839;80;21019;-71
2021/03/02 02:20:37;;;;;;;20.62;13.22;;;;;;;0.83;71.31;102160.73;1786804;79;21456;-70
2021/03/02 02:23:56;;;;;;;20.45;13.65;;;;;;;0.83;71.32;102150.41;1786885;80;22771;-69
2021/03/02 02:26:51;;;;;;;20.55;11.97;;;;;;;0.83;71.32;102143.95;1785875;80;21065;-69
2021/03/02 02:29:22;;;;;;;21.95;12.73;;;;;;;0.77;71.47;102151.66;1786893;80;28544;-71
2021/03/02 02:31:50;;;;;;;23.47;14.23;;;;;;;0.70;71.65;102155.50;1760403;80;21350;-70
2021/03/02 02:34:19;;;;;;;23.07;14.68;;;;;;;0.66;71.84;102147.30;1786791;80;21469;-71
2021/03/02 02:36:50;;;;;;;28.23;16.57;;;;;;;0.60;72.03;102144.23;1786830;80;21836;-70
2021/03/02 02:39:19;;;;;;;36.15;20.30;;;;;;;0.57;72.14;102149.39;1786708;80;20987;-68
2021/03/02 02:41:48;;;;;;;37.93;20.45;;;;;;;0.55;72.20;102144.22;1760724;80;21022;-71
2021/03/02 02:44:18;;;;;;;36.65;20.75;;;;;;;0.53;72.39;102148.94;1786398;80;20984;-70
2021/03/02 02:46:46;;;;;;;44.18;23.00;;;;;;;0.49;72.49;102146.78;1786746;80;20943;-70
2021/03/02 02:49:14;;;;;;;53.75;27.82;;;;;;;0.49;72.56;102146.78;1760710;80;21464;-68
2021/03/02 02:51:42;;;;;;;69.12;34.10;;;;;;;0.49;72.50;102139.44;1735769;80;21524;-68
2021/03/02 02:54:12;;;;;;;79.92;41.58;;;;;;;0.45;72.43;102145.03;1760699;80;20936;-71
2021/03/02 02:56:43;;;;;;;88.75;44.73;;;;;;;0.44;72.27;102132.11;1786715;80;20939;-69
2021/03/02 02:59:24;;;;;;;95.50;51.65;;;;;;;0.40;72.21;102128.63;1786688;80;20928;-68
2021/03/02 03:01:59;;;;;;;118.10;56.80;;;;;;;0.35;72.16;102135.05;1786717;80;22372;-70
2021/03/02 03:04:31;;;;;;;105.32;59.60;;;;;;;0.33;72.17;102127.73;1786780;80;21437;-68
2021/03/02 03:06:59;;;;;;;112.35;60.73;;;;;;;0.29;72.20;102120.84;1786659;79;21393;-69
2021/03/02 03:09:27;;;;;;;110.22;60.85;;;;;;;0.27;72.15;102119.08;1786218;80;20985;-68
2021/03/02 03:12:01;;;;;;;126.97;64.85;;;;;;;0.24;72.18;102113.48;1733283;80;20930;-71
2021/03/02 03:14:30;;;;;;;120.75;65.57;;;;;;;0.22;72.11;102110.02;1785876;80;21372;-70
2021/03/02 03:16:58;;;;;;;121.50;63.30;;;;;;;0.19;72.19;102107.44;1757756;80;21590;-69
2021/03/02 03:19:27;;;;;;;119.08;63.87;;;;;;;0.19;72.22;102110.88;1757828;80;21033;-69
2021/03/02 03:21:56;;;;;;;129.95;69.32;;;;;;;0.17;72.30;102104.84;1786464;80;21593;-70
2021/03/02 03:24:24;;;;;;;127.45;69.03;;;;;;;0.18;72.28;102107.87;1786373;80;20993;-70
2021/03/02 03:26:51;;;;;;;130.05;71.35;;;;;;;0.14;72.33;102104.83;1786440;80;22694;-67
2021/03/02 03:29:20;;;;;;;115.25;61.77;;;;;;;0.16;72.28;102103.12;1733284;80;20946;-67
2021/03/02 03:31:47;;;;;;;107.58;57.33;;;;;;;0.14;72.24;102107.41;1786301;80;21108;-67
2021/03/02 03:34:15;;;;;;;100.70;54.65;;;;;;;0.11;72.19;102111.66;1757841;80;20997;-68
2021/03/02 03:36:43;;;;;;;101.70;53.58;;;;;;;0.09;72.23;102109.09;1786269;80;21351;-67
2021/03/02 03:39:12;;;;;;;94.37;49.25;;;;;;;0.07;72.30;102108.63;1757871;80;21211;-68
2021/03/02 03:41:39;;;;;;;89.35;46.70;;;;;;;0.07;72.27;102111.20;1758110;80;20946;-68
2021/03/02 03:44:07;;;;;;;79.20;42.53;;;;;;;0.02;72.32;102108.59;1786238;80;20946;-67
2021/03/02 03:46:35;;;;;;;85.12;41.30;;;;;;;0.04;72.31;102112.48;1786256;80;20938;-68
2021/03/02 03:49:04;;;;;;;69.17;34.98;;;;;;;0.01;72.36;102112.47;1786343;80;21027;-67
2021/03/02 03:51:33;;;;;;;64.82;36.17;;;;;;;0.02;72.34;102109.88;1786260;80;21195;-66
2021/03/02 03:54:01;;;;;;;68.12;33.60;;;;;;;0.01;72.39;102104.73;1757961;80;21371;-65
2021/03/02 03:56:29;;;;;;;67.95;33.05;;;;;;;0.01;72.35;102103.44;1786320;80;20949;-67
2021/03/02 03:58:57;;;;;;;55.67;31.82;;;;;;;-0.02;72.42;102105.58;1786212;80;21012;-69
2021/03/02 04:01:26;;;;;;;57.25;30.30;;;;;;;-0.01;72.43;102106.86;1786273;80;21017;-68
2021/03/02 04:03:54;;;;;;;56.05;26.33;;;;;;;-0.03;72.48;102109.84;1758209;80;22296;-68
2021/03/02 04:06:22;;;;;;;51.95;26.40;;;;;;;-0.01;72.49;102104.27;1786195;80;20894;-67
2021/03/02 04:08:50;;;;;;;45.98;24.12;;;;;;;-0.02;72.57;102101.70;1760391;80;20955;-68
2021/03/02 04:11:18;;;;;;;44.05;22.73;;;;;;;-0.02;72.51;102101.28;1792949;80;21015;-67
2021/03/02 04:13:47;;;;;;;48.87;25.62;;;;;;;-0.03;72.54;102101.25;1792974;80;20994;-67
2021/03/02 04:16:15;;;;;;;42.88;22.55;;;;;;;-0.05;72.57;102096.08;1792996;80;21387;-68
2021/03/02 04:18:43;;;;;;;48.23;25.88;;;;;;;-0.04;72.63;102086.22;1792916;80;20939;-68
2021/03/02 04:21:11;;;;;;;38.02;21.42;;;;;;;-0.05;72.64;102093.50;1792907;80;21015;-67
2021/03/02 04:23:40;;;;;;;44.27;22.15;;;;;;;-0.05;72.64;102094.78;1768480;80;20969;-69
2021/03/02 04:26:07;;;;;;;32.30;16.73;;;;;;;-0.06;72.74;102088.35;1784701;80;20966;-68
2021/03/02 04:28:35;;;;;;;34.15;17.40;;;;;;;-0.05;72.82;102090.06;1817590;79;21219;-68
2021/03/02 04:31:03;;;;;;;26.90;17.77;;;;;;;-0.05;72.89;102096.08;1817603;79;21506;-66
2021/03/02 04:33:31;;;;;;;33.08;17.50;;;;;;;-0.05;73.02;102090.06;1817634;79;21347;-67
2021/03/02 04:36:01;;;;;;;30.60;16.70;;;;;;;-0.05;73.05;102090.06;1817579;79;20917;-67
2021/03/02 04:38:30;;;;;;;35.35;19.77;;;;;;;-0.04;73.09;102085.36;1817630;79;20905;-66
2021/03/02 04:40:58;;;;;;;39.67;22.32;;;;;;;-0.05;73.15;102088.77;1817642;79;22012;-67
2021/03/02 04:43:25;;;;;;;37.35;21.25;;;;;;;-0.04;73.19;102082.34;1817526;79;20992;-68
2021/03/02 04:45:53;;;;;;;41.20;21.80;;;;;;;-0.03;73.33;102076.76;1817550;79;20944;-68
2021/03/02 04:48:22;;;;;;;33.33;16.82;;;;;;;-0.01;73.35;102078.92;1817595;79;20932;-68
2021/03/02 04:50:50;;;;;;;31.02;17.73;;;;;;;-0.01;73.42;102068.17;1817590;79;20928;-68
2021/03/02 04:53:18;;;;;;;30.77;16.40;;;;;;;0.04;73.45;102072.51;1817660;79;21138;-68
2021/03/02 04:55:47;;;;;;;31.05;16.02;;;;;;;0.06;73.51;102069.08;1817504;79;21023;-67
2021/03/02 04:58:15;;;;;;;31.35;17.40;;;;;;;0.10;73.55;102069.55;1817574;79;21024;-67
2021/03/02 05:00:43;;;;;;;29.12;18.57;;;;;;;0.14;73.59;102061.41;1817482;79;20908;-69
2021/03/02 05:03:12;;;;;;;30.12;15.60;;;;;;;0.18;73.59;102052.84;1817599;79;20924;-69
2021/03/02 05:05:39;;;;;;;26.42;14.60;;;;;;;0.22;73.56;102051.98;1817572;79;21817;-70
2021/03/02 05:08:07;;;;;;;26.90;14.78;;;;;;;0.27;73.49;102055.88;1817511;79;21000;-69
2021/03/02 05:10:35;;;;;;;26.37;14.50;;;;;;;0.32;73.36;102052.48;1817243;79;21163;-68
2021/03/02 05:13:03;;;;;;;27.02;13.88;;;;;;;0.37;73.15;102048.20;1817314;78;21132;-68
2021/03/02 05:15:31;;;;;;;30.00;16.67;;;;;;;0.44;73.03;102046.95;1817288;79;21350;-68
2021/03/02 05:17:59;;;;;;;30.92;16.93;;;;;;;0.50;72.85;102052.15;1817344;79;22274;-68
2021/03/02 05:20:27;;;;;;;25.97;16.10;;;;;;;0.58;72.59;102053.05;1817281;78;21442;-70
2021/03/02 05:22:55;;;;;;;23.50;14.58;;;;;;;0.66;72.38;102050.49;1817296;79;21573;-69
2021/03/02 05:25:24;;;;;;;32.73;16.17;;;;;;;0.79;72.09;102050.97;1817217;78;20925;-70
2021/03/02 05:27:51;;;;;;;26.52;15.78;;;;;;;0.98;71.76;102042.88;1817388;79;21475;-72
2021/03/02 05:30:22;;;;;;;28.32;14.85;;;;;;;1.22;71.13;102045.50;1817213;79;21317;-69
2021/03/02 05:32:49;;;;;;;18.37;11.88;;;;;;;1.55;70.30;102046.81;1817242;79;21517;-70
2021/03/02 05:35:17;;;;;;;13.53;8.98;;;;;;;2.01;69.21;102033.42;1817326;78;20995;-70
2021/03/02 05:37:45;;;;;;;10.65;7.50;;;;;;;2.47;67.62;102028.13;1817122;79;21007;-70
2021/03/02 05:40:14;;;;;;;10.05;6.92;;;;;;;2.81;66.07;102027.13;1792364;79;20908;-69
2021/03/02 05:42:41;;;;;;;9.00;6.17;;;;;;;3.01;65.12;102020.53;1817018;79;21790;-73
2021/03/02 05:45:13;;;;;;;9.83;6.05;;;;;;;3.34;64.34;102016.86;1817245;79;21474;-70
2021/03/02 05:47:41;;;;;;;9.00;6.67;;;;;;;3.80;63.28;102018.19;1817304;79;20964;-70
2021/03/02 05:50:14;;;;;;;9.73;6.78;;;;;;;4.35;61.74;102016.32;1817288;79;20940;-70
2021/03/02 05:52:43;;;;;;;9.15;7.42;;;;;;;4.87;60.67;102010.48;1817281;78;21008;-69
2021/03/02 05:55:12;;;;;;;12.45;9.33;;;;;;;5.30;59.29;102003.33;1817220;79;21370;-69
2021/03/02 05:57:41;;;;;;;11.65;8.95;;;;;;;5.65;58.24;102005.80;1792420;79;20944;-69
2021/03/02 06:00:10;;;;;;;16.15;9.48;;;;;;;5.95;57.24;101999.66;1817250;79;21482;-73
2021/03/02 06:02:38;;;;;;;13.08;9.80;;;;;;;6.33;56.61;102009.33;1817222;78;20980;-76
2021/03/02 06:05:10;;;;;;;11.60;9.68;;;;;;;6.81;55.61;102008.36;1817214;78;20932;-76
2021/03/02 06:07:38;;;;;;;12.50;9.00;;;;;;;7.34;54.14;102003.66;1817226;78;21329;-75
2021/03/02 06:10:08;;;;;;;12.63;8.93;;;;;;;7.86;52.73;101993.19;1817063;79;20964;-74
2021/03/02 06:12:52;;;;;;;11.22;8.78;;;;;;;8.31;51.28;101999.80;1817172;79;20996;-76
2021/03/02 06:15:21;;;;;;;11.70;8.73;;;;;;;8.73;49.81;101996.02;1817158;79;20959;-77
2021/03/02 06:18:16;;;;;;;8.00;6.70;;;;;;;9.13;48.39;101994.33;1816858;79;20940;-76
2021/03/02 06:20:45;;;;;;;8.80;6.60;;;;;;;9.45;47.00;101985.87;1817128;79;21338;-74
2021/03/02 06:23:26;;;;;;;7.67;6.87;;;;;;;9.85;46.11;101982.77;1817154;79;20972;-74
2021/03/02 06:25:57;;;;;;;12.65;7.22;;;;;;;10.25;44.79;101975.22;1817356;79;20984;-73
2021/03/02 06:28:42;;;;;;;8.53;7.20;;;;;;;10.63;43.66;101971.64;1817156;79;21130;-74
2021/03/02 06:31:40;;;;;;;10.82;7.37;;;;;;;10.48;43.58;101970.02;1817406;78;20885;-73
2021/03/02 06:34:19;;;;;;;7.92;7.08;;;;;;;9.95;43.94;101977.59;1817277;79;21381;-73
2021/03/02 06:36:58;;;;;;;7.87;6.80;;;;;;;9.40;44.90;101972.94;1817161;79;20976;-73
2021/03/02 06:39:35;;;;;;;8.23;7.22;;;;;;;8.94;45.32;101966.59;1817248;79;21406;-73
2021/03/02 06:42:18;;;;;;;10.58;7.42;;;;;;;8.36;46.45;101963.95;1817149;79;20924;-73
2021/03/02 06:44:52;;;;;;;13.75;7.53;;;;;;;7.80;47.67;101960.73;1817432;79;20960;-73
2021/03/02 06:47:39;;;;;;;8.95;7.20;;;;;;;7.22;48.76;101966.11;1818091;79;21370;-74
2021/03/02 06:50:17;;;;;;;8.80;7.33;;;;;;;6.80;49.98;101959.27;1817189;79;20991;-73
2021/03/02 06:52:45;;;;;;;10.35;8.30;;;;;;;6.48;50.78;101961.72;1817228;79;20972;-74
2021/03/02 06:55:23;;;;;;;9.10;7.62;;;;;;;6.21;51.58;101960.10;1817193;79;20928;-74
2021/03/02 06:57:51;;;;;;;9.05;7.10;;;;;;;5.99;52.25;101956.61;1817249;78;21388;-74
2021/03/02 07:00:32;;;;;;;8.68;7.53;;;;;;;5.79;53.03;101957.41;1817338;79;21363;-74
2021/03/02 07:03:00;;;;;;;8.70;7.83;;;;;;;5.61;53.72;101952.95;1815403;79;20975;-71
2021/03/02 07:08:41;;;;;;;8.20;7.30;;;;;;;5.30;54.88;101951.77;1852273;77;22817;-68
2021/03/02 07:11:16;;;;;;;10.45;8.38;;;;;;;5.11;55.41;101949.89;1750280;82;21579;-68
2021/03/02 07:16:45;;;;;;;11.18;9.15;;;;;;;4.81;56.91;101944.28;1777152;78;22663;-71
2021/03/02 07:19:23;;;;;;;11.80;9.47;;;;;;;4.67;57.30;101947.09;1749951;81;21010;-70
2021/03/02 07:22:01;;;;;;;10.78;9.10;;;;;;;4.59;57.87;101952.82;1749692;80;22677;-68
2021/03/02 07:24:32;;;;;;;17.40;11.43;;;;;;;4.54;58.40;101946.84;1749615;82;20963;-69
2021/03/02 07:27:04;;;;;;;11.00;9.73;;;;;;;4.49;58.81;101953.39;1749669;82;21362;-69
2021/03/02 07:29:32;;;;;;;11.95;9.10;;;;;;;4.42;59.37;101951.73;1749698;80;21345;-69
2021/03/02 07:32:02;;;;;;;9.50;7.97;;;;;;;4.38;59.46;101947.48;1749667;80;21487;-70
2021/03/02 07:34:29;;;;;;;12.40;9.33;;;;;;;4.33;59.27;101950.55;1720997;82;21380;-69
2021/03/02 07:36:58;;;;;;;14.43;8.45;;;;;;;4.32;59.66;101951.45;1749601;82;20920;-70
2021/03/02 07:39:27;;;;;;;11.60;9.90;;;;;;;4.30;59.94;101954.05;1749679;81;21018;-69
2021/03/02 07:41:56;;;;;;;13.28;8.53;;;;;;;4.30;59.94;101950.16;1749547;82;21050;-80
2021/03/02 07:44:25;;;;;;;12.23;9.65;;;;;;;4.31;60.08;101950.59;1720947;82;20956;-73
2021/03/02 07:46:56;;;;;;;13.62;9.33;;;;;;;4.36;60.21;101938.85;1749601;82;21831;-72
2021/03/02 07:49:30;;;;;;;11.08;8.90;;;;;;;4.41;60.08;101940.09;1749604;82;21039;-72
2021/03/02 07:52:07;;;;;;;10.13;8.35;;;;;;;4.43;60.27;101942.23;1749626;81;21039;-72
2021/03/02 07:54:35;;;;;;;9.63;7.72;;;;;;;4.46;59.80;101933.94;1749635;82;20974;-73
2021/03/02 07:57:21;;;;;;;10.00;7.67;;;;;;;4.53;59.79;101930.37;1749695;80;20899;-75
2021/03/02 08:00:20;;;;;;;8.08;7.22;;;;;;;4.60;59.80;101925.95;1749580;82;21265;-75
2021/03/02 08:03:22;;;;;;;9.33;7.78;;;;;;;4.72;59.70;101920.59;1749596;80;21408;-76
2021/03/02 08:05:58;;;;;;;10.53;8.00;;;;;;;4.91;59.39;101925.50;1749568;82;20974;-77
2021/03/02 08:08:29;;;;;;;8.10;7.30;;;;;;;5.08;58.77;101917.00;1749694;82;21014;-74
2021/03/02 08:11:25;;;;;;;9.78;6.90;;;;;;;5.12;58.75;101914.77;1749647;82;21341;-75
2021/03/02 08:13:54;;;;;;;10.60;7.20;;;;;;;5.14;58.00;101909.55;1749450;81;21371;-76
2021/03/02 08:16:54;;;;;;;7.97;6.42;;;;;;;5.11;57.87;101911.77;1739545;81;21365;-74
2021/03/02 08:19:43;;;;;;;11.18;8.23;;;;;;;5.10;57.61;101902.23;1736373;82;20955;-73
2021/03/02 08:22:25;;;;;;;13.25;8.10;;;;;;;5.06;57.85;101904.91;1736373;82;20923;-72
2021/03/02 08:24:58;;;;;;;8.50;7.28;;;;;;;5.05;57.98;101906.66;1736370;82;20928;-75
2021/03/02 08:27:41;;;;;;;8.00;6.22;;;;;;;5.06;57.92;101887.56;1736062;82;21814;-74
2021/03/02 08:30:12;;;;;;;9.63;6.78;;;;;;;5.10;58.23;101894.44;1735970;82;20975;-75
2021/03/02 08:32:42;;;;;;;12.20;7.30;;;;;;;5.12;57.89;101888.77;1735879;81;20947;-76
2021/03/02 08:35:15;;;;;;;7.83;6.53;;;;;;;5.07;57.64;101885.40;1735745;82;20939;-76
2021/03/02 08:37:50;;;;;;;7.37;5.78;;;;;;;5.01;57.86;101898.48;1735896;82;21042;-75
2021/03/02 08:40:33;;;;;;;9.65;6.95;;;;;;;4.99;57.78;101892.45;1735634;82;22765;-76
2021/03/02 08:43:18;;;;;;;8.05;6.75;;;;;;;4.97;57.91;101891.17;1735790;82;20987;-79
2021/03/02 08:45:57;;;;;;;8.48;6.33;;;;;;;4.98;58.08;101883.80;1736085;82;21473;-76
2021/03/02 08:48:29;;;;;;;9.93;7.05;;;;;;;5.00;57.88;101882.45;1733513;81;21604;-77
2021/03/02 08:51:03;;;;;;;8.43;7.53;;;;;;;4.94;58.01;101873.03;1735895;81;21011;-76
2021/03/02 08:53:48;;;;;;;6.62;5.40;;;;;;;4.91;58.20;101868.31;1735913;81;21454;-76
2021/03/02 08:56:24;;;;;;;8.07;5.60;;;;;;;4.87;57.95;101864.93;1735987;82;21003;-74
2021/03/02 08:59:14;;;;;;;7.50;5.40;;;;;;;4.83;57.83;101867.16;1735957;81;21378;-74
2021/03/02 09:01:43;;;;;;;4.40;4.00;;;;;;;4.83;57.71;101870.20;1735898;81;20952;-75
2021/03/02 09:04:17;;;;;;;11.97;5.50;;;;;;;4.77;58.19;101868.55;1735867;81;20948;-73
2021/03/02 09:06:49;;;;;;;10.80;5.20;;;;;;;4.74;58.16;101863.41;1735960;82;22217;-71
2021/03/02 09:09:20;;;;;;;8.05;5.78;;;;;;;4.71;58.57;101864.31;1735941;81;21062;-74
2021/03/02 09:11:58;;;;;;;5.80;4.90;;;;;;;4.68;58.82;101863.05;1736038;82;21382;-72
2021/03/02 09:14:33;;;;;;;9.40;5.67;;;;;;;4.68;59.09;101856.55;1735868;82;21606;-71
2021/03/02 09:17:06;;;;;;;6.70;5.10;;;;;;;4.64;58.96;101852.28;1736494;81;20924;-72
2021/03/02 09:19:39;;;;;;;6.05;5.03;;;;;;;4.62;59.37;101842.80;1736152;81;21893;-71
2021/03/02 09:22:15;;;;;;;13.10;8.73;;;;;;;4.64;59.15;101848.38;1736047;81;21433;-70
2021/03/02 09:24:55;;;;;;;9.43;5.70;;;;;;;4.67;59.17;101835.36;1735920;82;21492;-74
2021/03/02 09:27:33;;;;;;;6.47;5.42;;;;;;;4.70;59.54;101838.35;1735775;82;21035;-74
2021/03/02 09:30:06;;;;;;;5.60;4.53;;;;;;;4.73;59.42;101839.14;1735822;81;21346;-73
2021/03/02 09:32:34;;;;;;;8.30;5.95;;;;;;;4.76;59.05;101828.72;1716041;82;21385;-73
2021/03/02 09:35:07;;;;;;;11.45;7.37;;;;;;;4.81;59.06;101825.19;1715315;82;21544;-71
2021/03/02 09:37:38;;;;;;;6.72;5.35;;;;;;;4.82;59.14;101828.19;1735801;81;21039;-76
2021/03/02 09:40:13;;;;;;;6.37;4.87;;;;;;;4.83;59.32;101815.17;1735721;81;21030;-73
2021/03/02 09:42:42;;;;;;;6.85;5.30;;;;;;;4.87;59.53;101815.55;1735752;81;20948;-73
2021/03/02 09:45:18;;;;;;;12.75;7.03;;;;;;;4.91;59.41;101815.03;1735793;82;21882;-74
2021/03/02 09:47:49;;;;;;;8.63;5.78;;;;;;;4.92;59.13;101807.22;1735834;82;21600;-71
2021/03/02 09:50:18;;;;;;;7.90;5.42;;;;;;;4.90;58.92;101808.98;1715427;82;20955;-71
2021/03/02 09:52:51;;;;;;;8.08;5.95;;;;;;;4.87;59.05;101809.47;1735808;81;21043;-71
2021/03/02 09:55:24;;;;;;;10.75;6.95;;;;;;;4.82;59.24;101804.80;1735791;82;21489;-71
2021/03/02 09:58:17;;;;;;;8.80;6.83;;;;;;;4.80;59.75;101806.11;1735812;82;21442;-70
2021/03/02 10:00:55;;;;;;;8.45;6.80;;;;;;;4.83;59.77;101801.33;1735734;82;21031;-71
2021/03/02 10:03:28;;;;;;;14.35;8.00;;;;;;;4.82;59.74;101802.20;1735856;82;20943;-71
2021/03/02 10:06:00;;;;;;;10.50;7.10;;;;;;;4.81;60.05;101789.66;1735742;82;21567;-67
2021/03/02 10:08:35;;;;;;;16.95;8.40;;;;;;;4.77;60.09;101783.64;1735786;81;21055;-67
2021/03/02 10:11:17;;;;;;;10.38;7.05;;;;;;;4.79;60.21;101779.72;1735818;82;22635;-69
2021/03/02 10:13:55;;;;;;;9.58;6.42;;;;;;;4.82;60.15;101771.02;1735688;81;21067;-68
2021/03/02 10:16:30;;;;;;;7.00;4.70;;;;;;;4.85;60.07;101777.03;1741773;81;21430;-67
2021/03/02 10:19:05;;;;;;;12.55;5.45;;;;;;;4.85;59.80;101763.19;1749687;81;21014;-67
2021/03/02 10:21:42;;;;;;;6.05;4.75;;;;;;;4.80;59.79;101761.09;1749917;80;20951;-67
2021/03/02 10:24:20;;;;;;;9.28;6.00;;;;;;;4.74;59.84;101756.88;1749720;82;21864;-66
2021/03/02 10:26:48;;;;;;;5.83;4.83;;;;;;;4.70;59.96;101754.75;1749739;82;21042;-67
2021/03/02 10:29:15;;;;;;;4.62;4.08;;;;;;;4.68;60.07;101747.88;1749784;82;21646;-66
2021/03/02 10:31:44;;;;;;;4.83;4.28;;;;;;;4.65;60.14;101744.05;1749708;82;20939;-68
2021/03/02 10:34:12;;;;;;;5.35;4.22;;;;;;;4.60;60.52;101740.20;1749700;82;20912;-74
2021/03/02 10:36:41;;;;;;;6.30;4.50;;;;;;;4.60;60.50;101738.05;1749694;82;21362;-71
2021/03/02 10:39:16;;;;;;;10.03;4.80;;;;;;;4.59;60.49;101732.00;1749655;82;20919;-70
2021/03/02 10:41:45;;;;;;;7.58;4.92;;;;;;;4.60;60.74;101737.59;1749574;82;21488;-70
2021/03/02 10:44:13;;;;;;;9.28;5.35;;;;;;;4.60;60.85;101733.70;1749802;80;20947;-69
2021/03/02 10:46:41;;;;;;;6.17;5.30;;;;;;;4.62;61.06;101737.58;1749606;82;21489;-71
2021/03/02 10:49:11;;;;;;;6.20;4.92;;;;;;;4.59;60.93;101725.95;1749717;82;21380;-70
2021/03/02 10:51:40;;;;;;;5.78;5.17;;;;;;;4.61;61.16;101722.89;1749680;82;21042;-70
2021/03/02 10:54:09;;;;;;;5.80;4.90;;;;;;;4.64;61.14;101709.39;1749717;81;20998;-71
2021/03/02 10:56:37;;;;;;;4.72;4.33;;;;;;;4.70;61.07;101698.05;1749644;82;21046;-72
2021/03/02 10:59:05;;;;;;;7.55;5.17;;;;;;;4.72;61.09;101689.78;1749780;82;21026;-72
2021/03/02 11:01:33;;;;;;;4.87;4.33;;;;;;;4.73;61.07;101673.29;1749715;82;21380;-72
2021/03/02 11:04:03;;;;;;;4.00;3.60;;;;;;;4.74;61.07;101681.06;1749651;81;20955;-70
2021/03/02 11:06:31;;;;;;;5.45;4.20;;;;;;;4.78;61.12;101675.38;1749522;82;20939;-75
2021/03/02 11:09:02;;;;;;;4.28;3.58;;;;;;;4.80;61.05;101671.44;1749347;82;21026;-75
2021/03/02 11:11:31;;;;;;;4.87;4.17;;;;;;;4.81;61.01;101654.52;1749773;80;21381;-75
2021/03/02 11:13:59;;;;;;;8.25;5.05;;;;;;;4.82;61.16;101657.97;1749979;80;21287;-76
2021/03/02 11:16:27;;;;;;;4.78;4.10;;;;;;;4.88;61.36;101663.05;1745918;81;20975;-76
2021/03/02 11:18:57;;;;;;;4.90;4.50;;;;;;;4.90;60.94;101656.09;1736002;82;21070;-76
2021/03/02 11:21:26;;;;;;;6.30;4.72;;;;;;;4.93;60.91;101656.02;1735743;81;21120;-76
2021/03/02 11:23:53;;;;;;;4.90;3.55;;;;;;;4.93;60.72;101640.42;1715116;82;20928;-78
2021/03/02 11:26:22;;;;;;;5.03;4.03;;;;;;;4.90;60.80;101636.14;1735734;81;21209;-77
2021/03/02 11:28:50;;;;;;;6.42;3.62;;;;;;;4.89;61.04;101631.84;1735637;81;20952;-78
2021/03/02 11:31:18;;;;;;;4.40;4.00;;;;;;;4.88;61.22;101624.07;1735667;82;20972;-73
2021/03/02 11:33:47;;;;;;;4.75;3.90;;;;;;;4.85;61.05;101618.50;1735683;82;20983;-73
2021/03/02 11:36:16;;;;;;;5.28;3.67;;;;;;;4.83;61.19;101615.52;1735615;81;21453;-73
2021/03/02 11:38:44;;;;;;;7.28;4.30;;;;;;;4.76;61.22;101619.53;1735699;82;22571;-71
2021/03/02 11:41:16;;;;;;;6.87;4.47;;;;;;;4.74;61.57;101610.91;1735458;82;21493;-72
2021/03/02 11:43:48;;;;;;;8.05;5.05;;;;;;;4.77;61.65;101611.29;1733377;81;21003;-72
2021/03/02 11:46:16;;;;;;;8.13;5.58;;;;;;;4.76;61.73;101598.75;1735753;82;21425;-74
2021/03/02 11:48:54;;;;;;;10.48;7.12;;;;;;;4.79;61.74;101606.92;1735284;81;21074;-73
2021/03/02 11:51:48;;;;;;;9.53;6.60;;;;;;;4.81;61.86;101601.25;1727234;82;21213;-71
2021/03/02 11:54:22;;;;;;;12.07;7.75;;;;;;;4.83;61.81;101600.78;1735647;81;20932;-70